Time;durP1;ratioP1;P1;durP2;ratioP2;P2;SDS_P1;SDS_P2;PMS_P1;PMS_P2;Temp;Humidity;BMP_temperature;BMP_pressure;BME280_temperature;BME280_humidity;BME280_pressure;Samples;Min_cycle;Max_cycle;Signal;HPM_P1;HPM_P2
2022/09/15 00:00:53;;;;;;;4.18;2.08;;;;;;;25.79;53.08;98765.00;4155579;28;20236;-31
2022/09/15 00:02:55;;;;;;;2.22;2.00;;;;;;;25.40;53.38;98776.72;4155195;28;20229;-32
2022/09/15 00:04:57;;;;;;;2.33;1.90;;;;;;;25.96;53.34;98749.13;4155755;28;20266;-32
2022/09/15 00:06:59;;;;;;;2.38;1.67;;;;;;;24.86;54.96;98770.94;4156516;28;20729;-32
2022/09/15 00:09:02;;;;;;;1.70;1.60;;;;;;;26.14;52.18;98754.94;4153314;28;20233;-33
2022/09/15 00:11:17;;;;;;;3.22;1.92;;;;;;;26.06;52.56;98755.56;4156354;28;20239;-33
2022/09/15 00:13:20;;;;;;;3.33;2.00;;;;;;;26.15;51.97;98762.84;4159460;28;20291;-35
2022/09/15 00:15:22;;;;;;;2.72;1.95;;;;;;;26.16;52.37;98760.91;4160297;28;20233;-33
2022/09/15 00:17:24;;;;;;;1.88;1.70;;;;;;;26.04;52.86;98761.28;4156322;28;20876;-36
2022/09/15 00:19:26;;;;;;;6.05;1.90;;;;;;;25.42;52.58;98793.56;4160106;28;20232;-34
2022/09/15 00:21:31;;;;;;;5.97;2.20;;;;;;;26.09;52.31;98765.88;4158826;28;20228;-34
2022/09/15 00:23:33;;;;;;;3.33;1.92;;;;;;;26.50;51.69;98751.84;4158605;28;20272;-34
2022/09/15 00:25:41;;;;;;;2.90;2.00;;;;;;;25.77;52.57;98778.09;4140394;28;20221;-34
2022/09/15 00:27:43;;;;;;;2.40;1.90;;;;;;;25.64;53.62;98751.50;4154866;28;20911;-32
2022/09/15 00:29:44;;;;;;;2.93;1.73;;;;;;;26.29;52.35;98748.53;4159511;28;20208;-31
2022/09/15 00:31:46;;;;;;;4.10;1.73;;;;;;;26.21;51.98;98757.34;4157544;28;20329;-33
2022/09/15 00:33:51;;;;;;;4.83;2.07;;;;;;;26.40;51.86;98744.59;4159328;28;20233;-34
2022/09/15 00:35:53;;;;;;;1.93;1.83;;;;;;;26.23;51.31;98766.03;4156163;28;20236;-34
2022/09/15 00:37:54;;;;;;;5.13;1.90;;;;;;;25.86;52.40;98757.31;4158413;28;20263;-32
2022/09/15 00:39:56;;;;;;;4.43;1.80;;;;;;;26.09;52.21;98753.06;4159827;28;20240;-35
2022/09/15 00:41:58;;;;;;;2.97;2.05;;;;;;;25.76;52.81;98766.41;4155443;28;20237;-33
2022/09/15 00:44:34;;;;;;;3.30;1.90;;;;;;;26.39;51.53;98751.16;4157591;28;20252;-33
2022/09/15 00:46:42;;;;;;;4.60;2.00;;;;;;;25.94;52.37;98766.81;4155075;28;20241;-33
2022/09/15 00:48:56;;;;;;;4.28;2.00;;;;;;;26.44;51.34;98740.19;4153193;28;20609;-32
2022/09/15 00:51:01;;;;;;;4.90;2.10;;;;;;;26.38;51.67;98741.34;4157673;28;20236;-34
2022/09/15 00:53:07;;;;;;;5.22;2.65;;;;;;;25.54;53.60;98733.34;4156676;28;20596;-33
2022/09/15 00:55:18;;;;;;;5.70;2.10;;;;;;;25.63;53.20;98739.81;4151137;28;20258;-36
2022/09/15 01:01:01;;;;;;;2.17;1.87;;;;;;;26.10;51.89;98718.47;4105102;28;20595;-32
2022/09/15 01:03:04;;;;;;;3.70;2.00;;;;;;;24.94;54.40;98738.84;4116522;28;20260;-33
2022/09/15 01:05:09;;;;;;;6.17;2.10;;;;;;;25.73;53.28;98717.97;4149459;28;20225;-32
2022/09/15 01:07:14;;;;;;;3.40;1.93;;;;;;;25.26;53.64;98738.41;4173663;28;20227;-34
2022/09/15 01:09:21;;;;;;;4.37;2.00;;;;;;;24.02;57.02;98704.53;4172578;28;20251;-32
2022/09/15 01:11:23;;;;;;;4.03;1.93;;;;;;;25.29;54.25;98694.31;4173425;28;20266;-37
2022/09/15 01:13:25;;;;;;;7.13;2.37;;;;;;;24.97;53.71;98724.66;4172384;28;20274;-32
2022/09/15 01:15:56;;;;;;;2.30;2.00;;;;;;;26.28;51.97;98689.69;4170306;28;20308;-31
2022/09/15 01:18:26;;;;;;;2.57;2.30;;;;;;;25.49;53.75;98717.06;4163227;28;20681;-32
2022/09/15 01:20:49;;;;;;;2.40;2.20;;;;;;;26.41;51.63;98702.63;4174848;28;20236;-34
2022/09/15 01:23:17;;;;;;;3.57;1.80;;;;;;;26.08;52.59;98713.34;4173974;28;20319;-32
2022/09/15 01:25:37;;;;;;;4.10;2.33;;;;;;;25.29;53.74;98728.84;4168377;28;20327;-34
2022/09/15 01:28:10;;;;;;;3.87;2.00;;;;;;;25.29;53.68;98724.25;4172584;28;20247;-31
2022/09/15 01:30:16;;;;;;;2.50;1.90;;;;;;;25.71;53.44;98703.00;4169311;28;20309;-33
2022/09/15 01:34:53;;;;;;;4.50;2.30;;;;;;;26.29;52.33;98697.56;4172876;28;20269;-31
2022/09/15 01:37:05;;;;;;;5.83;2.33;;;;;;;26.98;50.95;98680.16;4170233;28;20226;-32
2022/09/15 01:39:14;;;;;;;5.03;1.97;;;;;;;25.99;52.26;98722.41;4170035;28;20941;-33
2022/09/15 01:41:34;;;;;;;2.73;2.17;;;;;;;26.58;50.94;98709.56;4175163;28;20259;-33
2022/09/15 01:43:43;;;;;;;2.80;1.83;;;;;;;26.87;50.28;98714.91;4164779;28;20714;-31
2022/09/15 01:45:48;;;;;;;3.07;1.90;;;;;;;26.57;50.97;98725.09;4172413;28;20234;-33
2022/09/15 01:47:53;;;;;;;2.20;2.00;;;;;;;26.81;50.41;98714.16;4173525;28;20330;-33
2022/09/15 01:50:12;;;;;;;2.93;2.10;;;;;;;26.69;51.30;98703.69;4169543;28;20323;-34
2022/09/15 01:52:20;;;;;;;5.07;2.67;;;;;;;26.96;50.53;98707.72;4174504;28;20913;-35
2022/09/15 01:54:27;;;;;;;5.43;2.57;;;;;;;26.65;50.86;98720.91;4171753;28;20262;-32
2022/09/15 01:56:28;;;;;;;2.50;2.00;;;;;;;26.12;51.46;98733.44;4170233;28;20282;-31
2022/09/15 01:58:32;;;;;;;2.77;1.77;;;;;;;26.07;52.39;98711.69;4163906;28;20229;-32
2022/09/15 02:00:38;;;;;;;3.33;2.07;;;;;;;25.93;52.94;98694.34;4170797;28;20255;-34
2022/09/15 02:03:03;;;;;;;5.67;2.43;;;;;;;26.34;51.41;98713.06;4175497;28;20268;-36
2022/09/15 02:05:15;;;;;;;3.40;2.00;;;;;;;27.32;50.08;98681.84;4171081;28;20319;-34
2022/09/15 02:07:34;;;;;;;4.80;2.10;;;;;;;27.42;49.31;98703.53;4171540;28;20259;-34
2022/09/15 02:09:54;;;;;;;4.90;1.87;;;;;;;26.83;50.84;98703.78;4144684;28;20694;-32
2022/09/15 02:12:13;;;;;;;3.17;2.43;;;;;;;27.42;49.91;98696.16;4173653;28;20286;-32
2022/09/15 02:14:21;;;;;;;5.80;1.90;;;;;;;25.94;52.57;98739.59;4171493;28;20319;-32
2022/09/15 02:16:28;;;;;;;6.03;2.23;;;;;;;26.75;50.90;98707.16;4165403;28;20247;-32
2022/09/15 02:18:42;;;;;;;2.53;2.00;;;;;;;25.71;53.29;98719.31;4171694;28;20244;-31
2022/09/15 02:20:51;;;;;;;3.80;2.03;;;;;;;26.22;51.86;98726.25;4168785;28;20236;-32
2022/09/15 02:22:56;;;;;;;4.07;2.43;;;;;;;26.38;52.01;98710.56;4173867;28;20308;-34
2022/09/15 02:24:57;;;;;;;3.53;2.10;;;;;;;25.89;52.65;98731.44;4171994;28;20760;-31
2022/09/15 02:27:01;;;;;;;3.77;2.30;;;;;;;26.50;51.43;98711.81;4167834;28;20229;-31
2022/09/15 02:29:08;;;;;;;4.03;2.50;;;;;;;26.41;51.65;98707.25;4166076;28;20674;-33
2022/09/15 02:31:14;;;;;;;4.73;2.50;;;;;;;25.74;53.46;98719.56;4170960;28;20843;-33
2022/09/15 02:33:20;;;;;;;3.50;2.60;;;;;;;25.85;53.25;98717.59;4172741;28;20323;-32
2022/09/15 02:35:24;;;;;;;5.20;2.70;;;;;;;26.33;52.18;98700.53;4169069;28;20264;-33
2022/09/15 02:37:26;;;;;;;8.37;2.47;;;;;;;26.50;51.64;98713.69;4167811;28;20248;-33
2022/09/15 02:39:33;;;;;;;6.73;2.83;;;;;;;27.09;50.56;98698.00;4173165;28;20263;-30
2022/09/15 02:41:36;;;;;;;5.53;2.33;;;;;;;24.87;54.72;98731.00;4169686;28;20255;-32
2022/09/15 02:43:44;;;;;;;4.93;2.37;;;;;;;23.00;59.73;98703.34;4164928;28;20757;-32
2022/09/15 02:45:46;;;;;;;5.47;2.53;;;;;;;25.91;53.99;98672.88;4170802;28;20235;-33
2022/09/15 02:47:49;;;;;;;6.43;2.97;;;;;;;24.79;55.95;98712.53;4171562;28;20313;-31
2022/09/15 02:49:50;;;;;;;5.13;2.53;;;;;;;24.46;55.25;98717.50;4167920;28;21501;-33
2022/09/15 02:51:52;;;;;;;6.93;3.00;;;;;;;24.07;56.85;98716.19;4173330;28;20263;-35
2022/09/15 02:53:54;;;;;;;5.47;3.03;;;;;;;25.63;54.29;98690.00;4171202;28;20267;-33
2022/09/15 02:55:56;;;;;;;4.03;2.57;;;;;;;25.86;54.04;98677.53;4170992;28;20270;-34
2022/09/15 02:57:58;;;;;;;5.20;2.73;;;;;;;26.34;53.03;98666.75;4175136;28;20853;-33
2022/09/15 03:00:13;;;;;;;8.23;3.10;;;;;;;24.07;57.25;98709.97;4170136;28;20232;-32
2022/09/15 03:02:19;;;;;;;2.90;2.70;;;;;;;25.38;54.73;98695.34;4171424;28;20262;-36
2022/09/15 03:04:21;;;;;;;3.50;2.93;;;;;;;25.60;54.32;98689.47;4170684;28;20270;-36
2022/09/15 03:06:23;;;;;;;5.50;2.83;;;;;;;26.04;53.05;98687.75;4171047;28;20366;-31
2022/09/15 03:08:26;;;;;;;6.07;2.90;;;;;;;24.90;55.42;98727.69;4174031;28;20657;-33
2022/09/15 03:10:28;;;;;;;3.10;2.77;;;;;;;26.75;51.79;98674.44;4171830;28;20259;-32
2022/09/15 03:12:30;;;;;;;3.67;2.53;;;;;;;26.29;53.22;98697.56;4172105;28;20259;-31
2022/09/15 03:14:31;;;;;;;7.13;2.90;;;;;;;25.90;53.47;98717.53;4169081;28;22358;-32
2022/09/15 03:16:34;;;;;;;5.10;2.83;;;;;;;25.86;53.85;98699.34;4169561;28;20332;-36
2022/09/15 03:18:37;;;;;;;7.07;2.90;;;;;;;25.46;54.05;98723.06;4174472;28;20331;-34
2022/09/15 03:20:38;;;;;;;4.13;2.70;;;;;;;24.72;55.66;98734.56;4169898;28;20310;-33
2022/09/15 03:22:40;;;;;;;5.03;2.43;;;;;;;24.97;56.07;98695.59;4174284;28;20271;-33
2022/09/15 03:24:42;;;;;;;7.40;2.60;;;;;;;24.76;55.43;98716.59;4169332;28;20721;-34
2022/09/15 03:26:48;;;;;;;3.30;2.30;;;;;;;25.82;53.67;98695.56;4167085;28;20664;-34
2022/09/15 03:28:49;;;;;;;4.90;2.17;;;;;;;25.34;54.80;98717.94;4157061;28;20788;-32
2022/09/15 03:30:52;;;;;;;5.70;2.73;;;;;;;26.84;51.53;98693.66;4174438;28;20256;-33
2022/09/15 03:32:53;;;;;;;3.23;2.30;;;;;;;26.64;51.51;98703.75;4170385;28;20267;-36
2022/09/15 03:34:56;;;;;;;6.07;2.50;;;;;;;25.88;53.27;98725.19;4173294;28;20255;-35
2022/09/15 03:36:59;;;;;;;6.33;2.60;;;;;;;26.45;51.96;98716.47;4171404;28;20785;-33
2022/09/15 03:39:01;;;;;;;4.77;2.57;;;;;;;26.83;51.35;98700.25;4167922;28;20327;-34
2022/09/15 03:41:10;;;;;;;4.20;2.30;;;;;;;26.19;52.53;98729.56;4170262;28;20259;-32
2022/09/15 03:43:12;;;;;;;3.83;2.30;;;;;;;25.98;53.19;98735.19;4168750;28;20243;-34
2022/09/15 03:45:19;;;;;;;4.03;2.40;;;;;;;26.23;52.56;98733.34;4157523;28;20323;-33
2022/09/15 03:47:20;;;;;;;6.97;2.53;;;;;;;26.43;52.00;98722.22;4171228;28;20294;-35
2022/09/15 03:49:23;;;;;;;4.70;2.57;;;;;;;26.09;52.57;98736.72;4174749;28;20283;-32
2022/09/15 03:51:25;;;;;;;5.53;3.00;;;;;;;26.50;52.16;98713.69;4171228;28;20224;-33
2022/09/15 03:53:26;;;;;;;4.53;2.47;;;;;;;25.34;54.08;98745.97;4169415;28;20705;-35
2022/09/15 03:55:28;;;;;;;3.17;2.23;;;;;;;27.09;51.12;98698.00;4169111;28;20688;-31
2022/09/15 03:57:29;;;;;;;4.03;2.50;;;;;;;26.42;52.11;98725.22;4172851;28;20244;-33
2022/09/15 03:59:31;;;;;;;6.53;2.97;;;;;;;26.58;51.11;98731.38;4170121;28;20253;-31
2022/09/15 04:01:33;;;;;;;4.33;2.40;;;;;;;26.45;52.25;98732.81;4166151;28;20225;-33
2022/09/15 04:03:35;;;;;;;5.37;3.20;;;;;;;26.77;50.92;98734.13;4164924;28;20259;-34
2022/09/15 04:05:44;;;;;;;3.33;2.40;;;;;;;26.22;52.30;98731.69;4175549;28;20374;-32
2022/09/15 04:07:46;;;;;;;4.23;2.70;;;;;;;26.38;52.27;98729.66;4171733;28;20255;-36
2022/09/15 04:09:48;;;;;;;4.43;2.90;;;;;;;26.61;51.66;98719.88;4171671;28;20697;-32
2022/09/15 04:11:49;;;;;;;5.57;2.77;;;;;;;26.64;51.52;98725.56;4168771;28;20201;-34
2022/09/15 04:13:52;;;;;;;4.25;3.05;;;;;;;26.02;52.35;98749.06;4172953;28;20326;-35
2022/09/15 04:16:02;;;;;;;3.63;2.60;;;;;;;26.81;51.37;98716.91;4175712;28;20263;-31
2022/09/15 04:18:03;;;;;;;3.42;2.60;;;;;;;26.95;50.77;98708.00;4175163;28;20274;-34
2022/09/15 04:20:06;;;;;;;3.90;2.67;;;;;;;26.42;51.64;98731.50;4174265;28;20268;-31
2022/09/15 04:22:08;;;;;;;4.80;2.60;;;;;;;26.97;51.07;98711.25;4170269;28;20262;-32
2022/09/15 04:24:16;;;;;;;5.23;2.80;;;;;;;27.10;50.50;98713.28;4173748;28;20249;-33
2022/09/15 04:26:30;;;;;;;4.53;2.80;;;;;;;26.21;51.84;98733.63;4171030;28;20741;-32
2022/09/15 04:28:34;;;;;;;6.00;2.63;;;;;;;26.55;51.61;98721.84;4170628;28;20243;-31
2022/09/15 04:30:36;;;;;;;4.70;2.60;;;;;;;26.30;51.86;98723.72;4173876;28;20268;-34
2022/09/15 04:32:37;;;;;;;4.13;3.10;;;;;;;25.91;53.41;98721.06;4174743;28;20315;-31
2022/09/15 04:34:39;;;;;;;6.63;2.77;;;;;;;25.96;52.62;98737.38;4172992;28;20274;-31
2022/09/15 04:36:42;;;;;;;3.47;3.13;;;;;;;26.69;51.35;98711.06;4170117;28;20243;-34
2022/09/15 04:38:44;;;;;;;4.93;2.77;;;;;;;27.27;50.52;98690.91;4171936;28;20283;-32
2022/09/15 04:40:46;;;;;;;6.23;2.80;;;;;;;27.18;50.22;98726.25;4170935;28;20231;-31
2022/09/15 04:42:47;;;;;;;4.20;2.57;;;;;;;26.51;51.41;98718.88;4170637;28;20274;-32
2022/09/15 04:44:49;;;;;;;3.67;2.83;;;;;;;26.41;52.04;98720.91;4170134;28;20330;-32
2022/09/15 04:46:51;;;;;;;4.60;2.85;;;;;;;26.87;50.36;98712.97;4170830;28;20251;-32
2022/09/15 04:48:54;;;;;;;4.80;2.60;;;;;;;26.56;51.32;98728.13;4171141;28;20278;-30
2022/09/15 04:51:07;;;;;;;4.67;3.10;;;;;;;27.33;50.42;98708.03;4171138;28;20724;-34
2022/09/15 04:53:09;;;;;;;4.07;2.70;;;;;;;26.93;50.79;98723.84;4171308;28;20312;-33
2022/09/15 04:55:11;;;;;;;5.07;2.90;;;;;;;27.16;50.07;98727.66;4168630;28;20996;-33
2022/09/15 04:57:13;;;;;;;4.90;2.47;;;;;;;27.07;50.03;98735.69;4168614;28;20886;-35
2022/09/15 05:02:21;;;;;;;6.60;3.07;;;;;;;24.83;55.91;98684.53;4218553;27;20324;-64
2022/09/15 05:04:22;;;;;;;5.53;2.60;;;;;;;25.40;54.07;98676.84;4191157;28;20283;-63
2022/09/15 05:06:26;;;;;;;3.22;2.85;;;;;;;25.34;54.56;98690.72;4187252;28;20722;-63
2022/09/15 05:08:27;;;;;;;3.67;2.85;;;;;;;25.18;54.85;98700.91;4175804;28;20327;-63
2022/09/15 05:10:29;;;;;;;8.03;2.90;;;;;;;25.28;54.84;98686.44;4178036;28;20239;-63
2022/09/15 05:12:31;;;;;;;6.50;2.80;;;;;;;25.55;54.46;98686.78;4173523;28;20242;-63
2022/09/15 05:14:33;;;;;;;4.73;2.80;;;;;;;25.60;53.78;98696.84;4173205;28;20233;-63
2022/09/15 05:16:35;;;;;;;5.03;3.17;;;;;;;26.06;53.06;98690.19;4173202;28;20263;-63
2022/09/15 05:18:38;;;;;;;7.65;2.70;;;;;;;25.87;53.58;98687.34;4175238;28;20231;-64
2022/09/15 05:20:39;;;;;;;4.93;2.60;;;;;;;25.09;54.70;98725.16;4174400;28;20735;-64
2022/09/15 05:22:41;;;;;;;2.40;2.20;;;;;;;23.80;57.48;98710.25;4180684;28;20235;-64
2022/09/15 05:24:43;;;;;;;4.27;2.47;;;;;;;25.68;53.46;98698.94;4179952;28;20235;-64
2022/09/15 05:26:44;;;;;;;5.23;2.60;;;;;;;25.54;53.47;98715.13;4172027;28;20238;-63
2022/09/15 05:28:46;;;;;;;5.13;2.60;;;;;;;25.78;53.65;98708.94;4182450;28;20224;-63
2022/09/15 05:30:47;;;;;;;5.70;3.57;;;;;;;23.62;57.13;98744.16;4182971;28;20232;-65
2022/09/15 05:32:49;;;;;;;5.80;2.70;;;;;;;25.20;55.30;98704.97;4180662;28;20721;-65
2022/09/15 05:34:51;;;;;;;4.90;3.13;;;;;;;25.54;54.38;98697.97;4172919;28;20325;-64
2022/09/15 05:36:52;;;;;;;6.37;3.07;;;;;;;24.92;55.41;98727.41;4171231;28;20342;-63
2022/09/15 05:38:55;;;;;;;5.70;3.37;;;;;;;25.17;54.83;98710.97;4193945;28;20601;-63
2022/09/15 05:41:06;;;;;;;5.47;3.23;;;;;;;23.74;58.15;98725.75;4178020;28;20886;-63
2022/09/15 05:43:07;;;;;;;6.30;3.30;;;;;;;24.86;56.11;98704.88;4179048;28;20693;-64
2022/09/15 05:45:09;;;;;;;5.93;3.27;;;;;;;24.59;55.90;98721.56;4177884;28;20242;-64
2022/09/15 05:47:11;;;;;;;5.20;3.30;;;;;;;24.60;56.71;98699.53;4179766;28;20260;-64
2022/09/15 05:49:13;;;;;;;3.87;3.40;;;;;;;24.82;55.66;98715.50;4174080;28;20238;-64
2022/09/15 05:51:14;;;;;;;4.53;3.00;;;;;;;23.23;59.79;98717.50;4175106;28;20224;-65
2022/09/15 05:53:17;;;;;;;4.00;2.90;;;;;;;23.20;59.27;98738.66;4182429;28;20323;-64
2022/09/15 05:55:18;;;;;;;7.43;2.87;;;;;;;23.84;58.44;98717.59;4176522;28;20231;-64
2022/09/15 05:57:20;;;;;;;7.83;3.33;;;;;;;24.54;56.91;98703.34;4174773;28;20326;-63
2022/09/15 05:59:21;;;;;;;4.63;3.00;;;;;;;23.74;59.40;98707.56;4175173;28;20330;-64
2022/09/15 06:01:27;;;;;;;5.33;3.00;;;;;;;23.65;57.64;98740.91;4174880;28;20577;-63
2022/09/15 06:03:29;;;;;;;3.57;2.63;;;;;;;23.83;58.31;98724.09;4173304;28;20251;-63
2022/09/15 06:05:31;;;;;;;3.70;2.80;;;;;;;23.34;60.70;98690.13;4193087;27;20330;-63
2022/09/15 06:07:33;;;;;;;4.70;3.20;;;;;;;24.50;57.41;98694.16;4190606;28;20200;-63
2022/09/15 06:09:35;;;;;;;5.27;3.40;;;;;;;23.53;59.00;98733.00;4190322;28;20216;-65
2022/09/15 06:11:36;;;;;;;5.57;2.57;;;;;;;24.71;56.49;98699.50;4198260;28;20209;-64
2022/09/15 06:13:39;;;;;;;4.60;3.20;;;;;;;24.86;56.12;98710.31;4177884;28;20509;-66
2022/09/15 06:15:40;;;;;;;6.10;3.20;;;;;;;25.23;54.98;98715.28;4182982;28;20204;-64
2022/09/15 06:17:42;;;;;;;3.40;2.90;;;;;;;24.95;55.43;98746.72;4180378;28;20626;-64
2022/09/15 06:19:44;;;;;;;5.53;3.37;;;;;;;23.34;58.98;98762.56;4187706;28;20800;-64
2022/09/15 06:21:46;;;;;;;6.93;3.10;;;;;;;25.18;55.53;98723.47;4184189;28;20223;-64
2022/09/15 06:23:59;;;;;;;3.70;3.00;;;;;;;24.59;56.55;98762.31;4188123;28;20892;-64
2022/09/15 06:26:09;;;;;;;9.67;2.60;;;;;;;22.27;61.31;98780.69;4180734;28;20321;-63
2022/09/15 06:28:11;;;;;;;4.90;2.60;;;;;;;23.64;58.02;98761.00;4182649;28;20319;-64
2022/09/15 06:30:13;;;;;;;4.10;3.17;;;;;;;24.64;56.78;98726.97;4183113;28;20262;-65
2022/09/15 06:32:14;;;;;;;5.27;2.77;;;;;;;24.38;57.51;98739.81;4185697;28;20696;-65
2022/09/15 06:34:17;;;;;;;3.70;2.80;;;;;;;24.61;56.88;98743.81;4183897;28;20235;-65
2022/09/15 06:36:20;;;;;;;4.40;2.83;;;;;;;24.57;55.84;98765.31;4179643;28;20250;-65
2022/09/15 06:38:22;;;;;;;6.60;3.00;;;;;;;23.48;60.01;98743.84;4181506;28;20238;-64
2022/09/15 06:40:24;;;;;;;3.40;3.00;;;;;;;24.84;56.08;98747.84;4185257;28;20314;-65
2022/09/15 06:42:26;;;;;;;4.40;3.07;;;;;;;23.95;57.78;98772.69;4181270;28;20461;-65
2022/09/15 06:44:28;;;;;;;3.80;2.87;;;;;;;24.17;57.54;98766.19;4177743;28;20727;-64
2022/09/15 06:46:29;;;;;;;5.03;2.73;;;;;;;23.53;60.07;98750.09;4182446;28;20237;-65
2022/09/15 06:48:31;;;;;;;4.03;2.67;;;;;;;24.68;56.89;98742.44;4183702;28;20281;-65
2022/09/15 06:50:33;;;;;;;3.90;3.00;;;;;;;25.21;55.29;98750.13;4182271;28;20236;-64
2022/09/15 06:52:35;;;;;;;4.53;3.00;;;;;;;25.06;55.22;98777.41;4188804;28;20262;-64
2022/09/15 06:54:36;;;;;;;3.97;3.10;;;;;;;23.82;58.31;98789.50;4182368;28;20720;-63
2022/09/15 06:56:38;;;;;;;4.13;2.50;;;;;;;23.99;59.01;98751.22;4182472;28;20326;-63
2022/09/15 06:58:41;;;;;;;3.93;2.70;;;;;;;24.34;57.28;98774.06;4180469;28;20232;-64
2022/09/15 07:00:43;;;;;;;5.33;2.77;;;;;;;23.73;58.31;98803.59;4187066;28;20242;-64
2022/09/15 07:02:48;;;;;;;6.77;2.70;;;;;;;24.61;56.36;98771.00;4188009;28;20243;-63
2022/09/15 07:04:50;;;;;;;3.47;2.80;;;;;;;24.73;56.09;98778.84;4205186;28;20264;-64
2022/09/15 07:06:51;;;;;;;4.33;2.57;;;;;;;23.74;57.88;98809.88;4206776;28;20316;-64
2022/09/15 07:08:53;;;;;;;4.63;2.60;;;;;;;23.62;57.32;98818.25;4200254;28;20310;-63
2022/09/15 07:10:55;;;;;;;2.80;2.47;;;;;;;24.67;56.50;98784.31;4202657;28;20235;-64
2022/09/15 07:12:57;;;;;;;2.57;2.37;;;;;;;25.15;54.91;98783.06;4200241;28;20219;-63
2022/09/15 07:14:59;;;;;;;3.43;2.40;;;;;;;24.37;57.06;98800.69;4200598;28;20236;-64
2022/09/15 07:17:01;;;;;;;2.23;2.03;;;;;;;24.20;57.86;98790.91;4201855;28;20234;-64
2022/09/15 07:19:04;;;;;;;3.30;2.43;;;;;;;24.88;56.31;98773.38;4202631;28;20237;-64
2022/09/15 07:21:10;;;;;;;3.83;2.20;;;;;;;25.18;55.10;98787.94;4198659;28;20250;-65
2022/09/15 07:23:12;;;;;;;2.30;2.07;;;;;;;25.28;54.35;98809.66;4201111;28;20230;-63
2022/09/15 07:25:14;;;;;;;2.90;2.20;;;;;;;26.03;53.13;98791.53;4196750;28;20754;-63
2022/09/15 07:27:15;;;;;;;5.13;2.30;;;;;;;24.09;56.15;98852.53;4199179;28;20231;-63
2022/09/15 07:29:17;;;;;;;3.73;2.20;;;;;;;24.23;57.17;98839.25;4201031;28;20237;-63
2022/09/15 07:31:20;;;;;;;3.47;2.20;;;;;;;24.01;57.17;98846.81;4200939;28;20241;-63
2022/09/15 07:33:22;;;;;;;3.27;2.00;;;;;;;25.44;54.57;98807.69;4202714;28;20230;-63
2022/09/15 07:35:23;;;;;;;2.40;2.20;;;;;;;25.38;53.17;98836.03;4200522;28;20246;-64
2022/09/15 07:37:25;;;;;;;2.40;2.17;;;;;;;25.96;53.42;98797.31;4201053;28;20667;-63
2022/09/15 07:39:27;;;;;;;3.27;2.20;;;;;;;25.44;54.26;98825.94;4204754;27;20234;-63
2022/09/15 07:41:30;;;;;;;3.17;2.10;;;;;;;23.95;56.84;98862.28;4194413;28;20727;-63
2022/09/15 07:43:31;;;;;;;3.03;2.10;;;;;;;25.06;55.66;98823.63;4201476;28;20313;-63
2022/09/15 07:45:34;;;;;;;3.33;2.50;;;;;;;27.11;50.75;98794.00;4195073;28;20239;-64
2022/09/15 07:47:36;;;;;;;3.77;2.60;;;;;;;26.30;52.56;98838.19;4201943;28;20257;-63
2022/09/15 07:49:38;;;;;;;4.93;2.80;;;;;;;25.53;54.54;98856.94;4197489;28;20882;-64
2022/09/15 07:51:39;;;;;;;3.77;2.23;;;;;;;25.44;54.27;98864.03;4198463;28;20221;-63
2022/09/15 07:53:42;;;;;;;2.67;2.10;;;;;;;26.84;51.17;98839.03;4198106;28;20210;-63
2022/09/15 07:55:44;;;;;;;4.73;2.40;;;;;;;27.24;49.84;98877.06;4199620;28;20691;-63
2022/09/15 07:57:45;;;;;;;2.93;2.10;;;;;;;24.70;52.80;98907.97;4198762;28;20211;-64
2022/09/15 07:59:47;;;;;;;3.73;2.10;;;;;;;25.59;50.48;98902.06;4203095;28;20290;-64
2022/09/15 08:01:49;;;;;;;4.47;2.40;;;;;;;25.13;49.66;98926.69;4196894;28;20325;-63
2022/09/15 08:03:51;;;;;;;8.33;2.30;;;;;;;24.58;51.38;98915.56;4195403;28;20280;-63
2022/09/15 08:06:00;;;;;;;3.70;2.20;;;;;;;24.16;51.70;98924.75;4202641;28;20314;-62
2022/09/15 08:08:02;;;;;;;3.77;2.43;;;;;;;24.92;49.45;98915.03;4203175;28;20227;-63
2022/09/15 08:10:04;;;;;;;4.47;2.73;;;;;;;24.00;50.62;98932.88;4201752;28;20314;-63
2022/09/15 08:12:06;;;;;;;6.63;3.17;;;;;;;24.06;50.82;98912.81;4199255;28;20836;-63
2022/09/15 08:14:08;;;;;;;5.00;3.10;;;;;;;24.84;49.11;98933.53;4201966;28;20478;-65
2022/09/15 08:16:15;;;;;;;9.63;3.30;;;;;;;25.10;49.26;98919.06;4204217;28;20262;-64
2022/09/15 08:18:17;;;;;;;7.80;3.50;;;;;;;24.17;49.96;98956.31;4206925;28;20237;-64
2022/09/15 08:20:19;;;;;;;7.60;3.60;;;;;;;23.41;51.06;98968.44;4196315;28;20241;-65
2022/09/15 08:22:21;;;;;;;6.03;3.87;;;;;;;23.14;50.84;98966.66;4202778;28;20297;-64
2022/09/15 08:24:22;;;;;;;9.90;4.13;;;;;;;21.70;54.03;98971.50;4196277;28;20696;-64
2022/09/15 08:26:25;;;;;;;13.17;4.57;;;;;;;22.23;53.68;98935.78;4196561;28;20227;-63
2022/09/15 08:28:27;;;;;;;6.87;4.50;;;;;;;22.79;52.35;98933.63;4194145;28;20317;-64
2022/09/15 08:30:29;;;;;;;7.90;4.47;;;;;;;22.51;52.21;98939.31;4199600;28;20790;-63
2022/09/15 08:32:30;;;;;;;9.63;4.27;;;;;;;21.53;54.45;98949.06;4197190;28;20322;-64
2022/09/15 08:34:32;;;;;;;6.23;3.93;;;;;;;22.57;52.30;98941.00;4205480;28;20240;-65
2022/09/15 08:36:33;;;;;;;7.63;4.23;;;;;;;22.07;52.81;98988.97;4195136;28;20231;-64
2022/09/15 08:38:37;;;;;;;7.93;3.97;;;;;;;22.75;51.09;98965.00;4197355;28;20322;-62
2022/09/15 08:40:44;;;;;;;7.63;4.27;;;;;;;22.96;51.83;98927.22;4196292;28;20311;-62
2022/09/15 08:42:49;;;;;;;6.77;4.40;;;;;;;23.53;50.19;98942.72;4198118;28;20321;-62
2022/09/15 08:44:56;;;;;;;9.00;4.80;;;;;;;23.70;50.41;98937.13;4199949;28;20265;-63
2022/09/15 08:47:23;;;;;;;4.83;3.40;;;;;;;22.27;52.41;98991.91;4200409;28;20234;-63
2022/09/15 08:49:30;;;;;;;7.30;3.93;;;;;;;22.89;51.53;98961.84;4203855;28;20318;-63
2022/09/15 08:51:54;;;;;;;7.27;4.20;;;;;;;23.14;51.56;98948.50;4198734;28;20830;-62
2022/09/15 08:54:04;;;;;;;5.00;4.33;;;;;;;22.72;52.40;98954.66;4192219;28;20234;-63
2022/09/15 08:56:15;;;;;;;6.13;4.40;;;;;;;24.26;49.60;98925.63;4199703;28;20576;-63
2022/09/15 08:58:20;;;;;;;5.17;4.27;;;;;;;24.31;49.27;98939.22;4196584;28;20227;-63
2022/09/15 09:00:22;;;;;;;6.20;4.50;;;;;;;24.34;49.35;98945.19;4196451;28;20252;-64
2022/09/15 09:02:42;;;;;;;8.07;4.90;;;;;;;24.46;49.25;98962.88;4195925;28;20237;-63
2022/09/15 09:04:56;;;;;;;6.80;4.40;;;;;;;23.88;49.88;98995.56;4203027;28;20237;-63
2022/09/15 09:06:58;;;;;;;7.97;4.70;;;;;;;23.22;51.01;99014.19;4201184;28;20879;-64
2022/09/15 09:09:05;;;;;;;5.63;4.50;;;;;;;24.05;49.58;98970.09;4203449;28;20233;-63
2022/09/15 09:11:22;;;;;;;5.47;4.33;;;;;;;24.18;49.85;98966.09;4195705;28;20229;-63
2022/09/15 09:13:27;;;;;;;8.90;4.33;;;;;;;23.86;50.43;98986.88;4198849;28;20289;-66
2022/09/15 09:15:42;;;;;;;7.50;4.47;;;;;;;23.49;50.32;99014.06;4191915;28;20226;-63
2022/09/15 09:17:44;;;;;;;6.03;4.40;;;;;;;24.64;48.70;98979.72;4206255;28;20218;-62
2022/09/15 09:20:07;;;;;;;9.17;4.83;;;;;;;24.33;49.34;98993.28;4202077;28;20857;-64
2022/09/15 09:22:12;;;;;;;5.70;4.47;;;;;;;24.65;48.51;98987.63;4196919;28;20245;-64
2022/09/15 09:24:17;;;;;;;5.77;4.70;;;;;;;23.86;49.58;99046.59;4197716;28;20235;-63
2022/09/15 09:26:18;;;;;;;6.70;4.37;;;;;;;23.84;49.83;99028.91;4198737;28;20227;-63
2022/09/15 09:28:34;;;;;;;6.37;5.20;;;;;;;23.83;50.06;99038.97;4202671;28;20230;-62
2022/09/15 09:30:35;;;;;;;8.17;5.60;;;;;;;23.18;50.82;99049.94;4201141;28;20235;-63
2022/09/15 09:33:14;;;;;;;10.63;5.90;;;;;;;23.56;51.10;99001.13;4201773;28;20344;-63
2022/09/15 09:35:47;;;;;;;8.10;5.70;;;;;;;23.73;50.69;98982.72;4199631;28;20707;-62
2022/09/15 09:37:51;;;;;;;7.53;5.47;;;;;;;23.20;51.35;98993.56;4199703;28;20226;-62
2022/09/15 09:39:53;;;;;;;8.37;5.77;;;;;;;22.83;51.55;99021.44;4201569;28;20321;-63
2022/09/15 09:41:54;;;;;;;7.00;5.33;;;;;;;22.60;52.89;99005.50;4197996;28;20321;-63
2022/09/15 09:43:56;;;;;;;9.33;5.47;;;;;;;22.74;52.03;99003.19;4204202;28;20906;-64
2022/09/15 09:45:58;;;;;;;6.93;5.47;;;;;;;24.02;50.29;98951.63;4201827;28;20245;-63
2022/09/15 09:48:08;;;;;;;7.00;5.50;;;;;;;23.91;49.77;98976.03;4201042;28;20867;-62
2022/09/15 09:50:41;;;;;;;8.50;5.67;;;;;;;24.05;49.52;98986.38;4206666;28;20242;-63
2022/09/15 09:52:43;;;;;;;9.47;5.80;;;;;;;22.22;52.87;99024.34;4201105;28;20231;-63
2022/09/15 09:54:49;;;;;;;9.83;5.37;;;;;;;22.86;51.41;99013.88;4204220;28;20893;-63
2022/09/15 09:56:52;;;;;;;6.97;5.97;;;;;;;22.62;52.53;99016.91;4202239;28;20245;-64
2022/09/15 09:58:54;;;;;;;8.00;6.93;;;;;;;23.82;50.26;98961.31;4201113;28;20313;-64